createdAt,value
2023-05-06T00:02:19.710Z,18.85
2023-05-06T00:04:46.465Z,18.85
2023-05-06T00:07:13.189Z,18.85
2023-05-06T00:09:39.776Z,18.84
2023-05-06T00:12:06.429Z,18.83
2023-05-06T00:14:33.079Z,18.82
2023-05-06T00:16:59.693Z,18.80
2023-05-06T00:19:26.430Z,18.80
2023-05-06T00:21:53.025Z,18.78
2023-05-06T00:24:19.582Z,18.77
2023-05-06T00:26:46.162Z,18.76
2023-05-06T00:29:12.892Z,18.73
2023-05-06T00:31:39.638Z,18.72
2023-05-06T00:34:06.335Z,18.70
2023-05-06T00:36:33.007Z,18.68
2023-05-06T00:38:59.940Z,18.67
2023-05-06T00:41:31.142Z,18.68
2023-05-06T00:43:57.780Z,18.68
2023-05-06T00:46:24.889Z,18.68
2023-05-06T00:48:52.536Z,18.67
2023-05-06T00:51:19.225Z,18.66
2023-05-06T00:53:49.057Z,18.64
2023-05-06T00:56:20.030Z,18.62
2023-05-06T00:58:47.894Z,18.59
2023-05-06T01:01:14.606Z,18.53
2023-05-06T01:03:41.292Z,18.53
2023-05-06T01:06:14.043Z,18.51
2023-05-06T01:08:51.961Z,18.49
2023-05-06T01:11:35.567Z,18.48
2023-05-06T01:14:19.255Z,18.47
2023-05-06T01:16:49.319Z,18.48
2023-05-06T01:19:36.723Z,18.47
2023-05-06T01:22:06.087Z,18.46
2023-05-06T01:24:37.698Z,18.45
2023-05-06T01:27:04.369Z,18.45
2023-05-06T01:29:34.125Z,18.45
2023-05-06T01:32:07.996Z,18.45
2023-05-06T01:34:43.804Z,18.45
2023-05-06T01:37:25.808Z,18.44
2023-05-06T01:39:56.139Z,18.44
2023-05-06T01:42:24.603Z,18.44
2023-05-06T01:44:53.083Z,18.44
2023-05-06T01:47:20.041Z,18.43
2023-05-06T01:49:47.868Z,18.43
2023-05-06T01:52:17.601Z,18.43
2023-05-06T01:54:44.396Z,18.43
2023-05-06T01:57:11.037Z,18.42
2023-05-06T01:59:37.699Z,18.41
2023-05-06T02:02:04.419Z,18.40
2023-05-06T02:04:31.981Z,18.40
2023-05-06T02:06:58.669Z,18.39
2023-05-06T02:09:25.331Z,18.38
2023-05-06T02:11:56.470Z,18.37
2023-05-06T02:14:23.749Z,18.37
2023-05-06T02:16:50.646Z,18.35
2023-05-06T02:19:17.451Z,18.34
2023-05-06T02:21:44.079Z,18.33
2023-05-06T02:24:10.704Z,18.32
2023-05-06T02:26:37.312Z,18.31
2023-05-06T02:29:04.145Z,18.30
2023-05-06T02:31:31.783Z,18.28
2023-05-06T02:33:58.478Z,18.28
2023-05-06T02:36:25.174Z,18.27
2023-05-06T02:38:54.549Z,18.26
2023-05-06T02:41:21.345Z,18.22
2023-05-06T02:43:47.965Z,18.19
2023-05-06T02:46:14.728Z,18.14
2023-05-06T02:48:42.147Z,18.11
2023-05-06T02:51:08.806Z,18.08
2023-05-06T02:53:35.511Z,18.05
2023-05-06T02:56:02.131Z,18.04
2023-05-06T02:58:29.307Z,18.04
2023-05-06T03:00:56.083Z,18.04
2023-05-06T03:03:22.880Z,18.05
2023-05-06T03:05:49.569Z,18.02
2023-05-06T03:08:16.335Z,18.00
2023-05-06T03:10:42.997Z,17.97
2023-05-06T03:13:09.720Z,17.96
2023-05-06T03:15:37.337Z,17.95
2023-05-06T03:18:04.079Z,17.94
2023-05-06T03:20:30.741Z,17.94
2023-05-06T03:22:58.406Z,17.92
2023-05-06T03:25:25.088Z,17.90
2023-05-06T03:27:52.124Z,17.89
2023-05-06T03:30:21.127Z,17.87
2023-05-06T03:32:48.983Z,17.85
2023-05-06T03:35:20.539Z,17.82
2023-05-06T03:37:51.312Z,17.78
2023-05-06T03:40:18.589Z,17.75
2023-05-06T03:42:46.131Z,17.71
2023-05-06T03:45:13.457Z,17.69
2023-05-06T03:47:40.983Z,17.66
2023-05-06T03:50:08.924Z,17.65
2023-05-06T03:52:36.136Z,17.63
2023-05-06T03:55:03.279Z,17.61
2023-05-06T03:57:30.865Z,17.60
2023-05-06T03:59:57.928Z,17.59
2023-05-06T04:02:25.749Z,17.58
2023-05-06T04:04:52.858Z,17.58
2023-05-06T04:07:19.610Z,17.58
2023-05-06T04:09:46.345Z,17.59
2023-05-06T04:12:13.810Z,17.60
2023-05-06T04:14:40.464Z,17.60
2023-05-06T04:17:07.793Z,17.62
2023-05-06T04:19:34.723Z,17.63
2023-05-06T04:22:01.422Z,17.65
2023-05-06T04:24:31.457Z,17.66
2023-05-06T04:26:58.756Z,17.68
2023-05-06T04:29:27.061Z,17.70
2023-05-06T04:31:57.942Z,17.73
2023-05-06T04:34:27.841Z,17.76
2023-05-06T04:36:55.445Z,17.79
2023-05-06T04:39:37.032Z,17.81
2023-05-06T04:42:04.062Z,17.84
2023-05-06T04:44:36.669Z,17.87
2023-05-06T04:47:04.252Z,17.88
2023-05-06T04:49:31.406Z,17.94
2023-05-06T04:51:58.587Z,17.99
2023-05-06T04:54:25.499Z,18.04
2023-05-06T04:56:52.180Z,18.06
2023-05-06T04:59:19.290Z,18.10
2023-05-06T05:01:46.204Z,18.13
2023-05-06T05:04:12.917Z,18.16
2023-05-06T05:06:39.865Z,18.17
2023-05-06T05:09:06.494Z,18.19
2023-05-06T05:11:33.506Z,18.21
2023-05-06T05:14:02.204Z,18.19
2023-05-06T05:16:30.156Z,18.12
2023-05-06T05:18:57.038Z,18.00
2023-05-06T05:21:26.576Z,17.88
2023-05-06T05:23:54.824Z,17.88
2023-05-06T05:26:21.988Z,17.91
2023-05-06T05:28:49.417Z,17.90
2023-05-06T05:31:16.815Z,17.85
2023-05-06T05:33:43.656Z,17.84
2023-05-06T05:36:15.453Z,17.88
2023-05-06T05:38:43.373Z,17.98
2023-05-06T05:41:10.430Z,18.09
2023-05-06T05:43:37.335Z,18.20
2023-05-06T05:46:04.410Z,18.30
2023-05-06T05:48:32.819Z,18.39
2023-05-06T05:51:03.438Z,18.49
2023-05-06T05:53:30.148Z,18.60
2023-05-06T05:55:57.059Z,18.70
2023-05-06T05:58:24.199Z,18.78
2023-05-06T06:00:51.159Z,18.86
2023-05-06T06:03:18.798Z,18.96
2023-05-06T06:05:45.621Z,19.05
2023-05-06T06:08:13.041Z,19.14
2023-05-06T06:10:39.868Z,19.24
2023-05-06T06:13:11.025Z,19.35
2023-05-06T06:15:37.732Z,19.44
2023-05-06T06:18:04.521Z,19.55
2023-05-06T06:20:31.883Z,19.68
2023-05-06T06:22:58.592Z,19.81
2023-05-06T06:25:25.547Z,19.95
2023-05-06T06:27:55.285Z,20.10
2023-05-06T06:30:22.113Z,20.28
2023-05-06T06:32:50.918Z,20.44
2023-05-06T06:35:17.820Z,20.62
2023-05-06T06:37:44.849Z,20.80
2023-05-06T06:40:12.472Z,21.02
2023-05-06T06:42:39.132Z,21.23
2023-05-06T06:45:19.118Z,21.44
2023-05-06T06:47:45.771Z,21.50
2023-05-06T06:50:12.618Z,21.47
2023-05-06T06:52:39.300Z,21.41
2023-05-06T06:55:06.620Z,21.43
2023-05-06T06:57:33.194Z,21.53
2023-05-06T06:59:59.809Z,21.67
2023-05-06T07:02:26.452Z,21.76
2023-05-06T07:04:53.899Z,21.78
2023-05-06T07:07:20.757Z,21.94
2023-05-06T07:09:47.408Z,22.02
2023-05-06T07:12:14.091Z,22.09
2023-05-06T07:14:41.459Z,22.24
2023-05-06T07:17:08.072Z,22.40
2023-05-06T07:19:34.660Z,22.55
2023-05-06T07:22:03.088Z,22.68
2023-05-06T07:24:29.736Z,22.85
2023-05-06T07:26:56.714Z,22.98
2023-05-06T07:29:23.431Z,23.06
2023-05-06T07:31:50.178Z,23.03
2023-05-06T07:34:16.888Z,23.04
2023-05-06T07:36:44.835Z,23.09
2023-05-06T07:39:12.601Z,23.08
2023-05-06T07:41:39.586Z,23.18
2023-05-06T07:44:06.566Z,23.37
2023-05-06T07:46:33.765Z,23.48
2023-05-06T07:49:00.524Z,23.59
2023-05-06T07:51:27.312Z,23.56
2023-05-06T07:53:53.952Z,23.50
2023-05-06T07:56:20.732Z,23.52
2023-05-06T07:58:49.407Z,23.61
2023-05-06T08:01:16.439Z,23.75
2023-05-06T08:03:44.131Z,23.89
2023-05-06T08:06:11.089Z,23.97
2023-05-06T08:08:37.724Z,24.15
2023-05-06T08:11:04.904Z,24.20
2023-05-06T08:13:33.522Z,24.24
2023-05-06T08:16:02.597Z,24.36
2023-05-06T08:18:29.971Z,24.54
2023-05-06T08:20:56.859Z,24.76
2023-05-06T08:23:23.716Z,24.92
2023-05-06T08:25:50.346Z,24.94
2023-05-06T08:28:17.109Z,25.04
2023-05-06T08:30:46.026Z,25.29
2023-05-06T08:33:12.681Z,25.50
2023-05-06T08:35:39.300Z,25.51
2023-05-06T08:38:05.901Z,25.58
2023-05-06T08:40:33.846Z,25.70
2023-05-06T08:43:03.409Z,25.65
2023-05-06T08:45:30.325Z,25.49
2023-05-06T08:47:58.149Z,25.47
2023-05-06T08:50:25.860Z,25.42
2023-05-06T08:52:52.759Z,25.55
2023-05-06T08:55:21.646Z,25.79
2023-05-06T08:57:49.530Z,26.00
2023-05-06T09:00:17.623Z,26.12
2023-05-06T09:02:44.472Z,26.15
2023-05-06T09:05:12.506Z,26.18
2023-05-06T09:07:39.554Z,26.27
2023-05-06T09:10:13.756Z,26.28
2023-05-06T09:12:40.614Z,26.27
2023-05-06T09:15:09.470Z,26.27
2023-05-06T09:17:36.668Z,26.34
2023-05-06T09:20:03.717Z,26.51
2023-05-06T09:22:31.452Z,26.73
2023-05-06T09:24:59.088Z,26.90
2023-05-06T09:27:28.376Z,26.94
2023-05-06T09:30:05.984Z,26.99
2023-05-06T09:32:33.508Z,26.93
2023-05-06T09:35:00.980Z,26.91
2023-05-06T09:37:28.240Z,26.90
2023-05-06T09:39:57.508Z,26.96
2023-05-06T09:42:26.585Z,27.02
2023-05-06T09:44:55.706Z,27.13
2023-05-06T09:47:24.176Z,27.15
2023-05-06T09:49:50.891Z,27.13
2023-05-06T09:52:19.515Z,27.30
2023-05-06T09:54:46.883Z,27.21
2023-05-06T09:57:17.264Z,27.11
2023-05-06T09:59:45.167Z,27.09
2023-05-06T10:02:13.444Z,27.00
2023-05-06T10:04:45.941Z,27.07
2023-05-06T10:07:13.719Z,27.12
2023-05-06T10:09:42.299Z,27.20
2023-05-06T10:12:10.022Z,27.41
2023-05-06T10:14:37.607Z,27.72
2023-05-06T10:17:11.683Z,28.01
2023-05-06T10:19:42.339Z,28.03
2023-05-06T10:22:17.200Z,27.96
2023-05-06T10:24:56.058Z,27.91
2023-05-06T10:27:24.985Z,27.87
2023-05-06T10:29:57.884Z,27.74
2023-05-06T10:32:30.007Z,27.80
2023-05-06T10:34:59.381Z,28.02
2023-05-06T10:37:28.644Z,28.24
2023-05-06T10:39:56.506Z,28.42
2023-05-06T10:42:34.128Z,28.46
2023-05-06T10:45:04.033Z,28.45
2023-05-06T10:48:03.084Z,28.51
2023-05-06T10:50:29.677Z,28.38
2023-05-06T10:52:59.002Z,28.13
2023-05-06T10:55:37.800Z,28.08
2023-05-06T10:58:15.454Z,28.18
2023-05-06T11:00:42.614Z,28.24
2023-05-06T11:03:14.065Z,28.43
2023-05-06T11:05:51.980Z,28.61
2023-05-06T11:08:26.092Z,28.68
2023-05-06T11:10:55.829Z,28.76
2023-05-06T11:13:27.662Z,28.83
2023-05-06T11:15:57.169Z,28.90
2023-05-06T11:18:31.891Z,28.93
2023-05-06T11:21:00.391Z,29.00
2023-05-06T11:23:42.662Z,29.07
2023-05-06T11:26:11.181Z,29.05
2023-05-06T11:28:40.474Z,29.02
2023-05-06T11:31:08.375Z,29.06
2023-05-06T11:33:37.364Z,29.05
2023-05-06T11:36:05.015Z,28.95
2023-05-06T11:38:45.662Z,28.84
2023-05-06T11:41:13.474Z,28.76
2023-05-06T11:43:40.250Z,28.75
2023-05-06T11:46:07.233Z,28.83
2023-05-06T11:48:33.934Z,29.03
2023-05-06T11:51:00.721Z,29.13
2023-05-06T11:53:27.381Z,29.34
2023-05-06T11:55:54.865Z,29.57
2023-05-06T11:58:27.471Z,29.64
2023-05-06T12:00:59.143Z,29.79
2023-05-06T12:03:28.783Z,29.71
2023-05-06T12:05:56.227Z,29.57
2023-05-06T12:08:30.013Z,29.42
2023-05-06T12:11:01.005Z,29.20
2023-05-06T12:13:28.453Z,29.15
2023-05-06T12:15:56.402Z,29.24
2023-05-06T12:18:24.042Z,29.25
2023-05-06T12:20:53.808Z,29.27
2023-05-06T12:23:22.091Z,29.30
2023-05-06T12:26:04.210Z,29.22
2023-05-06T12:28:32.756Z,29.21
2023-05-06T12:31:17.804Z,29.14
2023-05-06T12:33:46.536Z,29.15
2023-05-06T12:36:13.461Z,29.20
2023-05-06T12:38:50.619Z,29.16
2023-05-06T12:41:17.412Z,29.23
2023-05-06T12:43:44.086Z,29.42
2023-05-06T12:46:12.444Z,29.43
2023-05-06T12:48:39.553Z,29.41
2023-05-06T12:51:19.824Z,29.33
2023-05-06T12:53:46.586Z,29.15
2023-05-06T12:56:13.868Z,29.04
2023-05-06T12:58:40.583Z,29.02
2023-05-06T13:01:09.857Z,29.05
2023-05-06T13:03:38.832Z,29.21
2023-05-06T13:06:05.900Z,29.28
2023-05-06T13:08:32.650Z,29.32
2023-05-06T13:11:01.744Z,29.45
2023-05-06T13:13:28.703Z,29.50
2023-05-06T13:15:55.849Z,29.46
2023-05-06T13:18:22.492Z,29.27
2023-05-06T13:20:49.127Z,28.98
2023-05-06T13:23:15.692Z,28.69
2023-05-06T13:26:00.346Z,28.54
2023-05-06T13:28:28.933Z,28.48
2023-05-06T13:30:55.584Z,28.30
2023-05-06T13:33:22.291Z,28.25
2023-05-06T13:35:48.915Z,28.31
2023-05-06T13:38:15.513Z,28.45
2023-05-06T13:40:42.082Z,28.62
2023-05-06T13:43:09.064Z,28.68
2023-05-06T13:45:35.707Z,28.69
2023-05-06T13:48:02.326Z,28.69
2023-05-06T13:50:29.108Z,28.60
2023-05-06T13:52:55.761Z,28.43
2023-05-06T13:55:22.347Z,28.31
2023-05-06T13:57:48.918Z,28.20
2023-05-06T14:00:16.043Z,28.09
2023-05-06T14:02:42.734Z,27.93
2023-05-06T14:05:10.712Z,27.75
2023-05-06T14:07:40.200Z,27.60
2023-05-06T14:10:08.790Z,27.49
2023-05-06T14:12:35.542Z,27.36
2023-05-06T14:15:02.292Z,27.22
2023-05-06T14:17:28.985Z,27.11
2023-05-06T14:19:55.849Z,27.05
2023-05-06T14:22:22.493Z,27.03
2023-05-06T14:24:49.234Z,27.07
2023-05-06T14:27:15.956Z,27.02
2023-05-06T14:29:43.308Z,26.97
2023-05-06T14:32:09.946Z,26.95
2023-05-06T14:34:36.948Z,26.88
2023-05-06T14:37:03.728Z,26.80
2023-05-06T14:39:30.661Z,26.66
2023-05-06T14:41:57.629Z,26.59
2023-05-06T14:44:24.216Z,26.57
2023-05-06T14:46:50.927Z,26.55
2023-05-06T14:49:17.615Z,26.52
2023-05-06T14:51:44.509Z,26.49
2023-05-06T14:54:11.373Z,26.48
2023-05-06T14:56:38.088Z,26.45
2023-05-06T14:59:04.734Z,26.39
2023-05-06T15:01:33.728Z,26.32
2023-05-06T15:04:00.500Z,26.28
2023-05-06T15:06:27.401Z,26.26
2023-05-06T15:08:54.126Z,26.24
2023-05-06T15:11:21.025Z,26.21
2023-05-06T15:13:47.662Z,26.19
2023-05-06T15:16:16.964Z,26.18
2023-05-06T15:18:45.122Z,26.18
2023-05-06T15:21:13.321Z,26.15
2023-05-06T15:23:39.984Z,26.11
2023-05-06T15:26:06.738Z,26.04
2023-05-06T15:28:33.410Z,26.00
2023-05-06T15:31:00.124Z,25.98
2023-05-06T15:33:26.817Z,25.96
2023-05-06T15:35:53.407Z,25.92
2023-05-06T15:38:20.046Z,25.89
2023-05-06T15:40:51.365Z,25.84
2023-05-06T15:43:23.604Z,25.79
2023-05-06T15:45:51.293Z,25.78
2023-05-06T15:48:18.122Z,25.79
2023-05-06T15:50:44.914Z,25.81
2023-05-06T15:53:11.720Z,25.81
2023-05-06T15:55:46.775Z,25.73
2023-05-06T15:58:19.395Z,25.70
2023-05-06T16:00:45.954Z,25.69
2023-05-06T16:03:12.915Z,25.70
2023-05-06T16:05:39.949Z,25.72
2023-05-06T16:08:06.681Z,25.72
2023-05-06T16:10:35.506Z,25.72
2023-05-06T16:13:02.200Z,25.73
2023-05-06T16:15:28.904Z,25.74
2023-05-06T16:17:56.057Z,25.77
2023-05-06T16:20:22.797Z,25.81
2023-05-06T16:22:50.818Z,25.82
2023-05-06T16:25:17.538Z,25.76
2023-05-06T16:27:44.198Z,25.72
2023-05-06T16:30:11.418Z,25.70
2023-05-06T16:32:38.322Z,25.66
2023-05-06T16:35:05.528Z,25.64
2023-05-06T16:37:32.105Z,25.61
2023-05-06T16:39:58.692Z,25.57
2023-05-06T16:42:25.289Z,25.55
2023-05-06T16:44:52.047Z,25.54
2023-05-06T16:47:23.540Z,25.52
2023-05-06T16:49:50.724Z,25.48
2023-05-06T16:52:17.904Z,25.46
2023-05-06T16:54:44.672Z,25.44
2023-05-06T16:57:11.841Z,25.40
2023-05-06T16:59:38.571Z,25.37
2023-05-06T17:02:05.316Z,25.35
2023-05-06T17:04:31.901Z,25.33
2023-05-06T17:06:58.589Z,25.30
2023-05-06T17:09:26.696Z,25.27
2023-05-06T17:11:53.310Z,25.23
2023-05-06T17:14:19.971Z,25.18
2023-05-06T17:16:47.237Z,25.13
2023-05-06T17:19:14.091Z,25.09
2023-05-06T17:21:41.045Z,25.05
2023-05-06T17:24:07.748Z,25.01
2023-05-06T17:26:35.219Z,24.97
2023-05-06T17:29:01.979Z,24.93
2023-05-06T17:31:28.693Z,24.90
2023-05-06T17:33:55.430Z,24.88
2023-05-06T17:36:22.100Z,24.85
2023-05-06T17:38:49.153Z,24.84
2023-05-06T17:41:15.961Z,24.82
2023-05-06T17:43:43.415Z,24.79
2023-05-06T17:46:10.151Z,24.77
2023-05-06T17:48:36.896Z,24.73
2023-05-06T17:51:03.613Z,24.69
2023-05-06T17:53:32.395Z,24.65
2023-05-06T17:55:59.053Z,24.61
2023-05-06T17:58:25.710Z,24.57
2023-05-06T18:00:52.405Z,24.51
2023-05-06T18:03:19.167Z,24.46
2023-05-06T18:05:45.973Z,24.41
2023-05-06T18:08:12.694Z,24.34
2023-05-06T18:10:41.157Z,24.28
2023-05-06T18:13:08.891Z,24.21
2023-05-06T18:15:35.867Z,24.11
2023-05-06T18:18:02.855Z,24.02
2023-05-06T18:20:29.480Z,23.92
2023-05-06T18:22:56.730Z,23.83
2023-05-06T18:25:23.471Z,23.73
2023-05-06T18:27:50.147Z,23.63
2023-05-06T18:30:16.808Z,23.52
2023-05-06T18:32:43.560Z,23.41
2023-05-06T18:35:11.448Z,23.31
2023-05-06T18:37:39.373Z,23.21
2023-05-06T18:40:09.037Z,23.13
2023-05-06T18:42:36.079Z,23.05
2023-05-06T18:45:04.958Z,22.99
2023-05-06T18:47:32.352Z,22.93
2023-05-06T18:50:00.785Z,22.85
2023-05-06T18:52:27.636Z,22.77
2023-05-06T18:54:54.195Z,22.70
2023-05-06T18:57:21.058Z,22.64
2023-05-06T18:59:47.919Z,22.56
2023-05-06T19:02:14.658Z,22.51
2023-05-06T19:04:41.302Z,22.47
2023-05-06T19:07:08.038Z,22.43
2023-05-06T19:09:37.144Z,22.41
2023-05-06T19:12:04.663Z,22.39
2023-05-06T19:14:32.609Z,22.36
2023-05-06T19:16:59.304Z,22.33
2023-05-06T19:19:26.113Z,22.31
2023-05-06T19:21:52.823Z,22.27
2023-05-06T19:24:19.416Z,22.24
2023-05-06T19:26:46.480Z,22.23
2023-05-06T19:29:14.755Z,22.21
2023-05-06T19:31:41.383Z,22.19
2023-05-06T19:34:08.718Z,22.17
2023-05-06T19:36:35.361Z,22.15
2023-05-06T19:39:02.017Z,22.12
2023-05-06T19:41:28.750Z,22.11
2023-05-06T19:43:55.361Z,22.09
2023-05-06T19:46:22.047Z,22.08
2023-05-06T19:48:48.734Z,22.07
2023-05-06T19:51:15.459Z,22.05
2023-05-06T19:53:42.035Z,22.02
2023-05-06T19:56:13.268Z,22.00
2023-05-06T19:58:40.666Z,21.97
2023-05-06T20:01:07.379Z,21.95
2023-05-06T20:03:35.613Z,21.93
2023-05-06T20:06:08.861Z,21.93
2023-05-06T20:08:35.702Z,21.90
2023-05-06T20:11:02.446Z,21.88
2023-05-06T20:13:29.182Z,21.87
2023-05-06T20:15:57.341Z,21.84
2023-05-06T20:18:24.421Z,21.74
2023-05-06T20:20:51.059Z,21.65
2023-05-06T20:23:17.712Z,21.58
2023-05-06T20:25:44.401Z,21.52
2023-05-06T20:28:11.137Z,21.48
2023-05-06T20:30:38.719Z,21.44
2023-05-06T20:33:07.496Z,21.39
2023-05-06T20:35:38.463Z,21.35
2023-05-06T20:38:06.668Z,21.32
2023-05-06T20:40:35.854Z,21.29
2023-05-06T20:43:02.801Z,21.24
2023-05-06T20:45:31.056Z,21.22
2023-05-06T20:47:58.014Z,21.20
2023-05-06T20:50:24.680Z,21.18
2023-05-06T20:52:51.959Z,21.16
2023-05-06T20:55:20.650Z,21.12
2023-05-06T20:57:47.409Z,21.06
2023-05-06T21:00:14.748Z,21.02
2023-05-06T21:02:42.234Z,21.00
2023-05-06T21:05:10.200Z,20.96
2023-05-06T21:07:37.243Z,20.91
2023-05-06T21:10:05.833Z,20.87
2023-05-06T21:12:33.422Z,20.82
2023-05-06T21:15:00.549Z,20.79
2023-05-06T21:17:27.446Z,20.77
2023-05-06T21:19:54.378Z,20.70
2023-05-06T21:22:24.469Z,20.61
2023-05-06T21:24:51.282Z,20.53
2023-05-06T21:27:18.079Z,20.49
2023-05-06T21:29:44.790Z,20.48
2023-05-06T21:32:11.604Z,20.47
2023-05-06T21:34:38.264Z,20.47
2023-05-06T21:37:04.941Z,20.48
2023-05-06T21:39:31.503Z,20.48
2023-05-06T21:41:58.267Z,20.49
2023-05-06T21:44:24.979Z,20.51
2023-05-06T21:46:51.601Z,20.51
2023-05-06T21:49:19.620Z,20.49
2023-05-06T21:51:46.305Z,20.45
2023-05-06T21:54:13.017Z,20.45
2023-05-06T21:56:39.601Z,20.46
2023-05-06T21:59:07.880Z,20.48
2023-05-06T22:01:36.376Z,20.48
2023-05-06T22:04:04.937Z,20.49
2023-05-06T22:06:32.378Z,20.47
2023-05-06T22:08:59.018Z,20.43
2023-05-06T22:11:25.583Z,20.38
2023-05-06T22:13:52.298Z,20.36
2023-05-06T22:16:18.938Z,20.35
2023-05-06T22:18:45.749Z,20.36
2023-05-06T22:21:12.441Z,20.37
2023-05-06T22:23:40.704Z,20.37
2023-05-06T22:26:07.461Z,20.35
2023-05-06T22:28:34.489Z,20.31
2023-05-06T22:31:01.154Z,20.28
2023-05-06T22:33:27.820Z,20.23
2023-05-06T22:35:55.537Z,20.20
2023-05-06T22:38:22.246Z,20.19
2023-05-06T22:40:48.921Z,20.18
2023-05-06T22:43:15.632Z,20.17
2023-05-06T22:45:42.298Z,20.12
2023-05-06T22:48:08.989Z,20.07
2023-05-06T22:50:36.496Z,20.03
2023-05-06T22:53:13.686Z,19.98
2023-05-06T22:55:42.086Z,19.95
2023-05-06T22:58:08.791Z,19.93
2023-05-06T23:00:35.567Z,19.89
2023-05-06T23:03:02.918Z,19.86
2023-05-06T23:05:29.565Z,19.78
2023-05-06T23:07:56.166Z,19.68
2023-05-06T23:10:22.873Z,19.64
2023-05-06T23:12:49.551Z,19.62
2023-05-06T23:15:16.212Z,19.60
2023-05-06T23:17:42.895Z,19.59
2023-05-06T23:20:11.931Z,19.55
2023-05-06T23:22:38.647Z,19.47
2023-05-06T23:25:05.814Z,19.40
2023-05-06T23:27:32.416Z,19.40
2023-05-06T23:29:59.088Z,19.39
2023-05-06T23:32:25.782Z,19.40
2023-05-06T23:34:52.802Z,19.41
2023-05-06T23:37:19.444Z,19.41
2023-05-06T23:39:47.565Z,19.42
2023-05-06T23:42:14.388Z,19.42
2023-05-06T23:44:41.099Z,19.39
2023-05-06T23:47:07.692Z,19.33
2023-05-06T23:49:35.995Z,19.30
2023-05-06T23:52:03.187Z,19.28
2023-05-06T23:54:30.038Z,19.27
2023-05-06T23:56:56.696Z,19.27
2023-05-06T23:59:23.352Z,19.28
